Time;durP1;ratioP1;P1;durP2;ratioP2;P2;SDS_P1;SDS_P2;PMS_P1;PMS_P2;Temp;Humidity;BMP_temperature;BMP_pressure;BME280_temperature;BME280_humidity;BME280_pressure;Samples;Min_cycle;Max_cycle;Signal;HPM_P1;HPM_P2
2022/02/10 00:03:31;;;;;;;13.95;7.07;;;;;;;;;;5045461;28;20046;-62
2022/02/10 00:13:25;;;;;;;14.68;5.72;;;;;;;;;;5033776;28;20080;-62
2022/02/10 00:17:00;;;;;;;8.68;4.30;;;;;;;;;;5047294;28;20386;-62
2022/02/10 00:35:39;;;;;;;7.43;4.20;;;;;;;;;;5051460;28;20089;-62
2022/02/10 00:38:06;;;;;;;8.52;3.03;;;;;;;;;;5036704;28;20095;-62
2022/02/10 00:40:33;;;;;;;6.38;3.05;;;;;;;;;;5033532;28;20045;-62
2022/02/10 00:43:00;;;;;;;8.52;3.38;;;;;;;;;;5033086;28;20307;-62
2022/02/10 00:45:30;;;;;;;8.13;3.92;;;;;;;;;;5033345;28;20382;-62
2022/02/10 00:48:00;;;;;;;12.88;3.88;;;;;;;;;;5035680;28;20041;-61
2022/02/10 00:50:28;;;;;;;13.55;4.38;;;;;;;;;;5032773;28;20042;-62
2022/02/10 00:53:06;;;;;;;13.80;3.90;;;;;;;;;;5042177;28;20045;-62
2022/02/10 00:55:34;;;;;;;13.02;4.18;;;;;;;;;;5067540;28;20113;-61
2022/02/10 00:58:05;;;;;;;11.10;4.38;;;;;;;;;;5037558;28;20448;-62
2022/02/10 01:11:41;;;;;;;11.95;5.32;;;;;;;;;;5032418;28;20041;-62
2022/02/10 01:14:18;;;;;;;14.68;5.85;;;;;;;;;;5047683;28;20369;-62
2022/02/10 01:30:18;;;;;;;30.10;8.27;;;;;;;;;;5031643;28;20110;-62
2022/02/10 01:32:47;;;;;;;23.20;9.73;;;;;;;;;;5063544;28;20049;-62
2022/02/10 01:35:19;;;;;;;26.83;9.65;;;;;;;;;;5029028;28;20076;-62
2022/02/10 01:37:45;;;;;;;27.90;9.93;;;;;;;;;;5045435;28;20071;-62
2022/02/10 01:40:20;;;;;;;24.23;9.68;;;;;;;;;;5074974;28;20068;-62
2022/02/10 01:43:24;;;;;;;26.42;10.75;;;;;;;;;;5031842;28;20063;-62
2022/02/10 02:05:04;;;;;;;24.63;10.13;;;;;;;;;;5031639;28;20042;-61
2022/02/10 02:07:31;;;;;;;22.33;9.15;;;;;;;;;;5035358;28;20041;-62
2022/02/10 02:09:57;;;;;;;24.02;9.52;;;;;;;;;;5039300;28;20057;-62
2022/02/10 02:12:23;;;;;;;22.80;9.07;;;;;;;;;;5039524;28;20041;-62
2022/02/10 02:14:50;;;;;;;23.10;10.30;;;;;;;;;;5038086;28;20084;-62
2022/02/10 02:17:16;;;;;;;18.92;9.07;;;;;;;;;;5038921;28;20401;-62
2022/02/10 02:19:42;;;;;;;25.42;9.23;;;;;;;;;;5040370;28;20104;-62
2022/02/10 02:22:09;;;;;;;18.15;8.05;;;;;;;;;;5039521;28;20057;-62
2022/02/10 02:24:36;;;;;;;21.05;9.18;;;;;;;;;;5037024;28;20065;-62
2022/02/10 02:27:05;;;;;;;16.83;7.93;;;;;;;;;;5036621;28;20033;-62
2022/02/10 02:29:37;;;;;;;17.55;8.43;;;;;;;;;;5042959;28;20060;-62
2022/02/10 02:32:10;;;;;;;20.98;8.77;;;;;;;;;;5041595;28;20121;-62
2022/02/10 02:35:19;;;;;;;21.63;8.82;;;;;;;;;;5043501;28;20049;-62
2022/02/10 02:38:17;;;;;;;20.17;10.25;;;;;;;;;;5032217;28;20041;-62
2022/02/10 03:04:04;;;;;;;21.83;8.43;;;;;;;;;;5033631;28;20492;-62
2022/02/10 03:05:22;;;;;;;19.33;8.43;;;;;;;;;;5060610;28;20041;-62
2022/02/10 03:07:52;;;;;;;20.55;8.77;;;;;;;;;;5043040;28;20041;-62
2022/02/10 03:10:33;;;;;;;19.88;9.02;;;;;;;;;;5031584;28;20045;-62
2022/02/10 03:12:59;;;;;;;20.00;8.32;;;;;;;;;;5042859;28;20037;-62
2022/02/10 03:15:33;;;;;;;19.70;8.18;;;;;;;;;;5077089;28;20126;-62
2022/02/10 03:20:56;;;;;;;18.33;8.57;;;;;;;;;;5042535;28;19975;-62
2022/02/10 04:02:22;;;;;;;26.15;11.80;;;;;;;;;;5049284;28;20116;-62
2022/02/10 04:07:35;;;;;;;23.83;11.23;;;;;;;;;;5032471;28;20080;-62
2022/02/10 04:12:55;;;;;;;29.60;11.88;;;;;;;;;;5033374;28;20481;-62
2022/02/10 04:15:32;;;;;;;23.05;10.45;;;;;;;;;;5036126;28;20072;-62
2022/02/10 04:18:24;;;;;;;26.17;11.50;;;;;;;;;;5035546;28;20048;-62
2022/02/10 04:21:09;;;;;;;30.10;11.77;;;;;;;;;;5033259;28;20397;-62
2022/02/10 04:23:55;;;;;;;32.45;12.30;;;;;;;;;;5037345;28;20136;-62
2022/02/10 04:26:31;;;;;;;28.60;11.80;;;;;;;;;;5033662;28;20433;-62
2022/02/10 04:29:23;;;;;;;30.85;12.55;;;;;;;;;;5033007;28;20084;-62
2022/02/10 04:32:10;;;;;;;49.78;14.70;;;;;;;;;;5036935;28;20048;-62
2022/02/10 04:53:58;;;;;;;36.47;12.55;;;;;;;;;;5030258;28;20104;-62
2022/02/10 05:07:01;;;;;;;29.75;14.80;;;;;;;;;;5043785;28;20140;-62
2022/02/10 05:15:05;;;;;;;35.03;12.88;;;;;;;;;;5050528;28;20041;-62
2022/02/10 05:17:29;;;;;;;33.13;13.80;;;;;;;;;;5042122;28;20179;-62
2022/02/10 05:20:11;;;;;;;34.70;13.38;;;;;;;;;;5048755;28;20055;-62
2022/02/10 05:22:50;;;;;;;35.67;15.27;;;;;;;;;;5049513;28;20060;-62
2022/02/10 05:33:49;;;;;;;32.08;13.82;;;;;;;;;;5031643;28;20042;-62
2022/02/10 05:36:19;;;;;;;33.47;12.40;;;;;;;;;;5071318;28;20350;-62
2022/02/10 05:39:01;;;;;;;44.75;15.18;;;;;;;;;;5035245;28;20407;-62
2022/02/10 05:44:30;;;;;;;35.65;12.75;;;;;;;;;;5041995;28;20042;-62
2022/02/10 05:50:17;;;;;;;38.47;13.45;;;;;;;;;;5033379;28;20052;-62
2022/02/10 05:53:00;;;;;;;36.85;13.45;;;;;;;;;;5031143;28;20124;-62
2022/02/10 05:58:17;;;;;;;31.35;13.25;;;;;;;;;;5030967;28;20038;-62
2022/02/10 06:48:00;;;;;;;25.70;9.52;;;;;;;;;;5031495;28;20046;-61
2022/02/10 06:50:39;;;;;;;32.72;8.82;;;;;;;;;;5031632;28;20455;-62
2022/02/10 06:53:22;;;;;;;21.77;8.52;;;;;;;;;;5048251;28;20114;-62
2022/02/10 06:56:17;;;;;;;23.88;6.78;;;;;;;;;;5036559;28;20102;-62
2022/02/10 07:02:47;;;;;;;21.35;6.78;;;;;;;;;;5032444;28;20137;-62
2022/02/10 07:04:34;;;;;;;17.73;5.15;;;;;;;;;;5062783;28;20501;-62
2022/02/10 07:07:23;;;;;;;18.58;5.60;;;;;;;;;;5043162;28;20041;-61
2022/02/10 07:47:58;;;;;;;13.95;3.20;;;;;;;;;;5034059;28;20053;-61
2022/02/10 07:53:13;;;;;;;16.17;2.55;;;;;;;;;;5051713;28;20057;-61
2022/02/10 07:55:59;;;;;;;19.60;2.63;;;;;;;;;;5044020;28;20044;-62
2022/02/10 08:04:28;;;;;;;7.82;1.90;;;;;;;;;;5045270;28;20049;-61
2022/02/10 08:26:32;;;;;;;14.18;2.22;;;;;;;;;;5040943;28;20120;-61
2022/02/10 08:58:40;;;;;;;20.70;4.47;;;;;;;;;;5033758;28;20045;-60
2022/02/10 09:03:52;;;;;;;16.42;2.40;;;;;;;;;;5047367;28;20093;-60
2022/02/10 09:06:49;;;;;;;25.48;3.20;;;;;;;;;;5045698;28;20049;-61
2022/02/10 09:12:22;;;;;;;18.67;3.20;;;;;;;;;;5039545;28;20076;-61
2022/02/10 09:18:20;;;;;;;13.25;2.55;;;;;;;;;;5042927;28;20049;-61
2022/02/10 09:20:44;;;;;;;14.30;2.35;;;;;;;;;;5035429;28;20057;-61
2022/02/10 09:47:43;;;;;;;15.27;2.70;;;;;;;;;;5030120;28;20049;-64
2022/02/10 09:55:58;;;;;;;20.95;2.80;;;;;;;;;;5035076;28;20051;-60
2022/02/10 09:58:46;;;;;;;12.50;2.45;;;;;;;;;;5035755;28;20067;-60
2022/02/10 10:01:18;;;;;;;16.40;2.30;;;;;;;;;;5038831;28;20045;-60
2022/02/10 10:03:56;;;;;;;17.52;3.55;;;;;;;;;;5039463;28;20045;-60
2022/02/10 10:06:42;;;;;;;17.77;3.53;;;;;;;;;;5041732;28;20045;-60
2022/02/10 10:12:19;;;;;;;17.75;3.60;;;;;;;;;;5040032;28;20112;-61
2022/02/10 10:14:52;;;;;;;12.98;2.17;;;;;;;;;;5038935;28;20076;-61
2022/02/10 10:17:53;;;;;;;9.80;2.58;;;;;;;;;;5045663;28;20057;-61
2022/02/10 10:20:29;;;;;;;18.65;3.47;;;;;;;;;;5067608;28;20149;-61
2022/02/10 10:26:13;;;;;;;21.10;3.28;;;;;;;;;;5044329;28;20125;-61
2022/02/10 10:51:10;;;;;;;14.50;2.42;;;;;;;;;;5061257;28;20168;-61
2022/02/10 10:56:22;;;;;;;17.92;2.85;;;;;;;;;;5033025;28;20056;-61
2022/02/10 11:04:54;;;;;;;20.52;3.53;;;;;;;;;;5041060;28;20040;-60
2022/02/10 11:38:05;;;;;;;22.15;4.68;;;;;;;;;;5037711;28;20052;-61
2022/02/10 11:40:38;;;;;;;15.13;3.70;;;;;;;;;;5041086;28;20069;-61
2022/02/10 11:43:12;;;;;;;23.27;3.63;;;;;;;;;;5035390;28;20129;-61
2022/02/10 11:46:12;;;;;;;20.40;3.53;;;;;;;;;;5037370;28;20076;-61
2022/02/10 12:00:15;;;;;;;11.63;2.15;;;;;;;;;;5038796;28;20057;-60
2022/02/10 12:34:24;;;;;;;14.10;3.22;;;;;;;;;;5039505;28;20410;-60
2022/02/10 12:36:49;;;;;;;14.30;2.40;;;;;;;;;;5074477;28;20087;-60
2022/02/10 13:26:36;;;;;;;11.10;2.17;;;;;;;;;;5041673;28;20045;-60
2022/02/10 13:34:35;;;;;;;17.92;2.65;;;;;;;;;;5040484;28;20050;-61
2022/02/10 14:09:08;;;;;;;20.67;3.30;;;;;;;;;;5044707;28;20397;-61
2022/02/10 14:12:48;;;;;;;17.38;2.22;;;;;;;;;;5041109;28;20052;-61
2022/02/10 14:18:05;;;;;;;11.75;1.75;;;;;;;;;;5072453;28;20079;-60
2022/02/10 14:20:53;;;;;;;13.65;2.22;;;;;;;;;;5068007;28;20057;-61
2022/02/10 14:28:21;;;;;;;13.88;2.30;;;;;;;;;;5041486;28;20060;-60
2022/02/10 14:30:50;;;;;;;12.27;2.17;;;;;;;;;;5053028;28;20421;-60
2022/02/10 14:33:22;;;;;;;14.63;2.58;;;;;;;;;;5042550;28;20072;-60
2022/02/10 15:11:26;;;;;;;14.25;2.28;;;;;;;;;;5047748;28;20051;-60
2022/02/10 15:14:55;;;;;;;17.85;2.78;;;;;;;;;;5042293;28;20081;-61
2022/02/10 15:28:46;;;;;;;16.95;3.70;;;;;;;;;;5045985;28;20145;-60
2022/02/10 15:46:35;;;;;;;13.00;2.47;;;;;;;;;;5046667;28;20131;-60
2022/02/10 15:52:11;;;;;;;16.30;2.95;;;;;;;;;;5040526;28;20105;-63
2022/02/10 15:54:58;;;;;;;17.67;2.70;;;;;;;;;;5042914;28;20424;-60
2022/02/10 16:11:36;;;;;;;15.80;2.78;;;;;;;;;;5040112;28;20041;-60
2022/02/10 16:16:54;;;;;;;16.10;2.60;;;;;;;;;;5058122;28;20083;-59
2022/02/10 16:19:25;;;;;;;20.65;2.83;;;;;;;;;;5038755;28;20053;-59
2022/02/10 16:22:04;;;;;;;22.58;3.05;;;;;;;;;;5041708;28;20092;-60
2022/02/10 16:24:32;;;;;;;13.52;2.33;;;;;;;;;;5042150;28;20071;-59
2022/02/10 16:27:13;;;;;;;21.77;3.25;;;;;;;;;;5042087;28;20045;-61
2022/02/10 16:29:40;;;;;;;13.57;2.40;;;;;;;;;;5040948;28;20045;-60
2022/02/10 16:32:06;;;;;;;16.40;2.80;;;;;;;;;;5042870;28;20498;-60
2022/02/10 16:34:32;;;;;;;16.42;3.45;;;;;;;;;;5047500;28;20049;-60
2022/02/10 16:37:00;;;;;;;19.92;3.00;;;;;;;;;;5044988;28;20168;-60
2022/02/10 16:39:26;;;;;;;12.88;2.40;;;;;;;;;;5041837;28;20507;-60
2022/02/10 16:41:52;;;;;;;12.60;2.90;;;;;;;;;;5045351;28;20752;-60
2022/02/10 16:44:19;;;;;;;17.10;3.05;;;;;;;;;;5038597;28;20087;-60
2022/02/10 16:46:46;;;;;;;20.15;3.45;;;;;;;;;;5074484;28;20124;-60
2022/02/10 16:49:15;;;;;;;14.25;2.40;;;;;;;;;;5038678;28;20402;-59
2022/02/10 16:51:44;;;;;;;12.52;2.53;;;;;;;;;;5041367;28;20056;-60
2022/02/10 16:54:20;;;;;;;15.82;2.67;;;;;;;;;;5040894;28;20421;-60
2022/02/10 16:57:00;;;;;;;16.98;3.60;;;;;;;;;;5036730;28;20113;-60
2022/02/10 16:59:38;;;;;;;20.60;3.45;;;;;;;;;;5043614;28;20113;-61
2022/02/10 17:02:29;;;;;;;19.33;2.47;;;;;;;;;;5043018;28;20416;-61
2022/02/10 17:05:26;;;;;;;23.10;2.90;;;;;;;;;;5040810;28;20041;-60
2022/02/10 17:17:11;;;;;;;12.90;2.53;;;;;;;;;;5071959;28;20124;-61
2022/02/10 17:19:10;;;;;;;14.55;2.90;;;;;;;;;;5039005;28;20044;-61
2022/02/10 17:29:53;;;;;;;19.15;3.42;;;;;;;;;;5037870;28;20496;-61
2022/02/10 17:32:31;;;;;;;21.48;2.65;;;;;;;;;;5041876;28;20086;-61
2022/02/10 17:41:29;;;;;;;16.20;3.15;;;;;;;;;;5037487;28;20085;-61
2022/02/10 17:44:02;;;;;;;15.35;3.08;;;;;;;;;;5054860;28;20562;-60
2022/02/10 17:53:55;;;;;;;20.45;2.45;;;;;;;;;;5037988;28;20408;-61
2022/02/10 17:56:22;;;;;;;22.40;3.08;;;;;;;;;;5038709;28;20045;-61
2022/02/10 17:58:49;;;;;;;15.85;2.90;;;;;;;;;;5038571;28;20389;-60
2022/02/10 18:01:15;;;;;;;22.48;4.93;;;;;;;;;;5043447;28;20396;-60
2022/02/10 18:03:42;;;;;;;19.90;3.20;;;;;;;;;;5040290;28;20040;-60
2022/02/10 18:06:20;;;;;;;19.15;2.65;;;;;;;;;;5041513;28;20097;-61
2022/02/10 18:09:08;;;;;;;20.00;4.05;;;;;;;;;;5050077;28;20119;-61
2022/02/10 18:14:16;;;;;;;13.75;2.20;;;;;;;;;;5042196;28;20049;-60
2022/02/10 18:16:51;;;;;;;14.25;2.58;;;;;;;;;;5038413;28;20603;-60
2022/02/10 18:19:27;;;;;;;16.48;3.08;;;;;;;;;;5038907;28;20049;-61
2022/02/10 18:38:27;;;;;;;14.00;2.95;;;;;;;;;;5040201;28;20492;-61
2022/02/10 19:01:43;;;;;;;36.40;6.18;;;;;;;;;;5034783;28;20141;-60
2022/02/10 19:07:38;;;;;;;17.88;2.75;;;;;;;;;;5039857;28;20049;-60
2022/02/10 19:10:06;;;;;;;16.38;2.58;;;;;;;;;;5040629;28;20061;-63
2022/02/10 19:12:42;;;;;;;17.30;2.53;;;;;;;;;;5036107;28;20413;-60
2022/02/10 19:15:16;;;;;;;12.98;2.33;;;;;;;;;;5033261;28;20098;-60
2022/02/10 19:17:43;;;;;;;27.65;5.22;;;;;;;;;;5044263;28;20120;-60
2022/02/10 19:20:09;;;;;;;17.38;3.10;;;;;;;;;;5044238;28;20342;-60
2022/02/10 19:22:37;;;;;;;24.70;3.47;;;;;;;;;;5036796;28;20046;-60
2022/02/10 19:25:05;;;;;;;15.95;3.67;;;;;;;;;;5041282;28;20130;-60
2022/02/10 19:27:31;;;;;;;20.05;2.78;;;;;;;;;;5078348;28;20095;-60
2022/02/10 19:29:58;;;;;;;17.77;3.17;;;;;;;;;;5080410;28;20044;-61
2022/02/10 19:32:29;;;;;;;16.90;2.40;;;;;;;;;;5044991;28;20519;-60
2022/02/10 19:34:57;;;;;;;15.10;2.83;;;;;;;;;;5047030;28;20141;-60
2022/02/10 19:37:25;;;;;;;23.67;2.85;;;;;;;;;;5073693;28;20080;-60
2022/02/10 19:39:56;;;;;;;16.63;3.28;;;;;;;;;;5046092;28;20112;-60
2022/02/10 19:42:25;;;;;;;18.98;2.90;;;;;;;;;;5044606;28;20056;-60
2022/02/10 19:44:56;;;;;;;14.23;2.90;;;;;;;;;;5039639;28;20093;-60
2022/02/10 19:47:22;;;;;;;13.65;2.42;;;;;;;;;;5042768;28;20123;-61
2022/02/10 19:49:48;;;;;;;16.52;4.28;;;;;;;;;;5049201;28;20374;-60
2022/02/10 19:52:17;;;;;;;22.48;3.55;;;;;;;;;;5041815;28;20107;-60
2022/02/10 19:54:48;;;;;;;17.02;3.15;;;;;;;;;;5047533;28;20049;-60
2022/02/10 19:57:17;;;;;;;28.38;3.28;;;;;;;;;;5077995;28;20033;-60
2022/02/10 19:59:44;;;;;;;16.40;2.35;;;;;;;;;;5068613;28;20163;-60
2022/02/10 20:02:12;;;;;;;20.10;3.13;;;;;;;;;;5035220;28;20104;-60
2022/02/10 20:04:38;;;;;;;16.83;2.78;;;;;;;;;;5038508;28;20037;-60
2022/02/10 20:07:07;;;;;;;23.45;4.63;;;;;;;;;;5033493;28;20115;-60
2022/02/10 20:09:41;;;;;;;18.42;2.90;;;;;;;;;;5052136;28;20037;-61
2022/02/10 20:12:07;;;;;;;14.70;2.38;;;;;;;;;;5050272;28;20112;-60
2022/02/10 20:14:35;;;;;;;13.25;3.58;;;;;;;;;;5036642;28;20051;-60
2022/02/10 20:17:02;;;;;;;12.05;2.70;;;;;;;;;;5035257;28;20087;-60
2022/02/10 20:19:29;;;;;;;13.63;3.17;;;;;;;;;;5041361;28;20049;-61
2022/02/10 20:21:56;;;;;;;13.30;2.90;;;;;;;;;;5052289;28;20037;-61
2022/02/10 20:24:22;;;;;;;21.05;2.90;;;;;;;;;;5050367;28;20117;-60
2022/02/10 20:26:49;;;;;;;15.32;2.70;;;;;;;;;;5041307;28;20082;-60
2022/02/10 20:29:19;;;;;;;15.32;2.60;;;;;;;;;;5049075;28;20056;-60
2022/02/10 20:31:46;;;;;;;14.48;3.20;;;;;;;;;;5048731;28;20037;-60
2022/02/10 20:34:15;;;;;;;15.80;2.97;;;;;;;;;;5036864;28;20044;-60
2022/02/10 20:36:41;;;;;;;16.20;3.13;;;;;;;;;;5043249;28;20049;-61
2022/02/10 20:39:08;;;;;;;17.52;4.15;;;;;;;;;;5044001;28;20699;-60
2022/02/10 20:41:36;;;;;;;14.88;3.10;;;;;;;;;;5042435;28;20761;-60
2022/02/10 20:44:03;;;;;;;14.98;2.88;;;;;;;;;;5040924;28;20060;-61
2022/02/10 20:46:31;;;;;;;21.60;3.00;;;;;;;;;;5072536;28;20142;-60
2022/02/10 20:49:01;;;;;;;20.50;2.60;;;;;;;;;;5044236;28;20048;-60
2022/02/10 20:51:27;;;;;;;11.77;2.80;;;;;;;;;;5044001;28;20155;-60
2022/02/10 20:53:54;;;;;;;13.07;2.50;;;;;;;;;;5043671;28;20182;-60
2022/02/10 20:56:21;;;;;;;17.73;2.92;;;;;;;;;;5042766;28;20119;-60
2022/02/10 20:58:54;;;;;;;17.65;3.83;;;;;;;;;;5041294;28;20045;-60
2022/02/10 21:01:21;;;;;;;16.00;3.30;;;;;;;;;;5040045;28;20126;-60
2022/02/10 21:03:47;;;;;;;15.70;2.95;;;;;;;;;;5039418;28;20048;-60
2022/02/10 21:06:33;;;;;;;13.57;3.13;;;;;;;;;;5040096;28;20053;-60
2022/02/10 21:09:07;;;;;;;18.25;3.75;;;;;;;;;;5042789;28;20041;-61
2022/02/10 21:11:33;;;;;;;14.38;2.72;;;;;;;;;;5041120;28;20056;-61
2022/02/10 21:14:00;;;;;;;12.18;2.20;;;;;;;;;;5041514;28;20038;-60
2022/02/10 21:16:26;;;;;;;14.55;3.10;;;;;;;;;;5040101;28;20045;-64
2022/02/10 21:18:53;;;;;;;13.07;2.40;;;;;;;;;;5038824;28;20037;-60
2022/02/10 21:21:19;;;;;;;13.40;3.08;;;;;;;;;;5065803;28;20115;-60
2022/02/10 21:23:53;;;;;;;19.23;3.58;;;;;;;;;;5041266;28;20190;-60
2022/02/10 21:26:26;;;;;;;15.88;2.78;;;;;;;;;;5063856;28;20513;-60
2022/02/10 21:28:52;;;;;;;13.93;2.70;;;;;;;;;;5032171;28;20091;-60
2022/02/10 21:31:18;;;;;;;18.35;3.95;;;;;;;;;;5063581;28;20049;-61
2022/02/10 21:33:55;;;;;;;17.75;2.83;;;;;;;;;;5031747;28;20037;-60
2022/02/10 21:39:04;;;;;;;19.60;3.00;;;;;;;;;;5049532;28;20048;-60
2022/02/10 21:47:34;;;;;;;17.30;2.78;;;;;;;;;;5030830;28;20561;-60
2022/02/10 22:01:36;;;;;;;18.00;3.10;;;;;;;;;;5032657;28;20409;-60
2022/02/10 22:03:58;;;;;;;13.32;2.42;;;;;;;;;;5031255;28;20052;-60
2022/02/10 22:09:30;;;;;;;13.88;2.45;;;;;;;;;;5037761;28;20489;-60
2022/02/10 22:12:16;;;;;;;17.38;2.65;;;;;;;;;;5028504;28;20053;-60
2022/02/10 22:18:12;;;;;;;42.38;4.78;;;;;;;;;;5036261;28;20052;-60
2022/02/10 22:20:20;;;;;;;12.23;2.72;;;;;;;;;;5036598;28;20377;-60
2022/02/10 22:23:13;;;;;;;14.95;2.20;;;;;;;;;;5049143;28;20053;-61
2022/02/10 22:25:39;;;;;;;13.15;2.50;;;;;;;;;;5066692;28;20053;-60
2022/02/10 22:28:21;;;;;;;18.40;2.83;;;;;;;;;;5035912;28;20037;-60
2022/02/10 22:30:54;;;;;;;15.50;3.15;;;;;;;;;;5041125;28;20063;-60
2022/02/10 22:33:46;;;;;;;18.27;4.20;;;;;;;;;;5041523;28;20211;-60
2022/02/10 22:36:15;;;;;;;17.42;3.47;;;;;;;;;;5033587;28;20072;-60
2022/02/10 22:38:41;;;;;;;13.20;2.97;;;;;;;;;;5040929;28;20048;-60
2022/02/10 22:41:10;;;;;;;18.90;3.50;;;;;;;;;;5038262;28;20094;-60
2022/02/10 22:43:37;;;;;;;12.27;2.45;;;;;;;;;;5031425;28;20052;-60
2022/02/10 22:46:03;;;;;;;13.90;2.70;;;;;;;;;;5063717;28;20174;-60
2022/02/10 22:48:29;;;;;;;16.67;2.75;;;;;;;;;;5030981;28;20045;-60
2022/02/10 22:50:55;;;;;;;13.07;3.58;;;;;;;;;;5035597;28;20204;-61
2022/02/10 22:53:22;;;;;;;11.95;2.28;;;;;;;;;;5037964;28;20100;-60
2022/02/10 22:55:48;;;;;;;13.70;2.75;;;;;;;;;;5030479;28;20405;-60
2022/02/10 22:58:14;;;;;;;20.25;4.05;;;;;;;;;;5031624;28;20041;-60
2022/02/10 23:00:47;;;;;;;23.10;4.28;;;;;;;;;;5046568;28;20049;-60
2022/02/10 23:03:15;;;;;;;13.50;3.00;;;;;;;;;;5038888;28;20045;-60
2022/02/10 23:05:41;;;;;;;14.13;2.55;;;;;;;;;;5035438;28;20425;-60
2022/02/10 23:08:07;;;;;;;15.48;3.17;;;;;;;;;;5035272;28;20049;-60
2022/02/10 23:10:48;;;;;;;16.83;3.05;;;;;;;;;;5045762;28;20073;-60
2022/02/10 23:13:15;;;;;;;12.10;2.58;;;;;;;;;;5037187;28;20060;-60
2022/02/10 23:15:42;;;;;;;20.73;3.20;;;;;;;;;;5033057;28;20315;-60
2022/02/10 23:18:08;;;;;;;17.75;2.80;;;;;;;;;;5037530;28;20182;-60
2022/02/10 23:20:34;;;;;;;13.80;2.50;;;;;;;;;;5038242;28;20045;-60
2022/02/10 23:23:03;;;;;;;9.32;2.58;;;;;;;;;;5034549;28;20095;-60
2022/02/10 23:25:29;;;;;;;17.52;3.13;;;;;;;;;;5063460;28;20084;-60
2022/02/10 23:27:55;;;;;;;13.70;2.50;;;;;;;;;;5067045;28;20038;-61
2022/02/10 23:30:23;;;;;;;15.43;3.03;;;;;;;;;;5066817;28;20432;-60
2022/02/10 23:32:50;;;;;;;12.40;2.80;;;;;;;;;;5036658;28;20037;-60
2022/02/10 23:36:01;;;;;;;11.45;2.17;;;;;;;;;;5035921;28;20091;-60
2022/02/10 23:38:02;;;;;;;15.55;3.47;;;;;;;;;;5051981;28;20539;-60
2022/02/10 23:40:30;;;;;;;15.90;2.40;;;;;;;;;;5052581;28;20064;-60
2022/02/10 23:42:56;;;;;;;18.25;3.65;;;;;;;;;;5040920;28;20054;-60
2022/02/10 23:45:27;;;;;;;23.73;3.38;;;;;;;;;;5043953;28;20038;-61
2022/02/10 23:47:54;;;;;;;27.33;3.13;;;;;;;;;;5047027;28;20084;-60
2022/02/10 23:50:26;;;;;;;16.67;3.83;;;;;;;;;;5035368;28;20082;-60
2022/02/10 23:52:55;;;;;;;16.15;2.88;;;;;;;;;;5035240;28;20056;-60
2022/02/10 23:55:30;;;;;;;32.22;4.28;;;;;;;;;;5065953;28;20375;-60
2022/02/10 23:58:09;;;;;;;19.05;3.63;;;;;;;;;;5033786;28;20473;-60
